Donnelly, ID

5:49 PM MDT on May 25, 2015 (GMT -0600)
TMA Office | | Change Station
CLOSE
Current Station
Personal Weather Station
Location: Donnelly, ID
Elevation: 4875 ft
Nearby Weather Stations

Elev 4875 ft 44.67 °N, 116.12 °W | Updated 4 minutes ago

Overcast
Overcast
47.5 °F
Feels Like 47 °F
N
3.1
Wind Variable Wind from NNW
Gusts 11.4 mph

Today
High -- | Low -- °F
--% Chance of Precip.
Yesterday
High -- | Low -- °F
Precip. -- in
6:07 AM 9:16 PM
First Quarter, 52% visible
Pressure 29.91 in
Visibility 10.0 miles
Clouds Overcast 6000 ft
Windchill 47 °F
Dew Point 35.9 °F
Humidity 64%
Rainfall 0.05 in
Snow Depth Not available.
UV 2 out of 12
Pollen 7.90 out of 12
Air Quality Not available.
Flu Activity Sporadic
METAR KMYL 252251Z AUTO VRB06KT 10SM -RA OVC060 12/04 A2994 RMK AO2 LTG DSNT SE RAB46 SLP129 P0000 T01220044

More Conditions Fewer Conditions

Pressure 29.91 in
Visibility 10.0 miles
Clouds Overcast 6000 ft
Windchill 47 °F
Dew Point 35.9 °F
Humidity 64%
Rainfall 0.05 in
Snow Depth Not available.
UV 2 out of 12
Pollen 7.90 out of 12
Air Quality Not available.
Flu Activity Sporadic
METAR KMYL 252251Z AUTO VRB06KT 10SM -RA OVC060 12/04 A2994 RMK AO2 LTG DSNT SE RAB46 SLP129 P0000 T01220044

More Conditions Fewer Conditions

10-Day Weather Forecast

Almanac

Astronomy

May. 25, 2015 Rise Set
Actual Time
Civil Twilight
Nautical Twilight
Astronomical Twilight
Moon
Length of Visible Light
Length of Day
Tomorrow will be .
, % of the Moon is Illuminated

Today's Extremes

State Highs State Lows

Community

WunderPhotos

Upload Photos

1,824,173 photos uploaded!

WunderBlogs® & News

Nearby

Air Quality

  Air Quality AQ Index Pollutant
Not available.

Snow Depth

Station Depth Elevation

Earthquake Activity

City Distance Mag. Time & Date
Minimum magnitude displayed is 2.5.

Coastal Water Temperatures

Place Temperature

Stations

Nearby Weather Stations

Station Location Temp. Windchill Dew Point Humidity Wind Precip. Elev Updated Type